Weather at Tel Nof Air Base

Public forecast

Using degrees Celsius for public forecast. Weather courtesy of forecast.io.

Closest aviation weather report (METAR) to Tel Nof Air Base

Closest report is Ben Gurion International Airport, 10.8 nm (20.1 km) NNE. Retrieved 2021/12/03 09:20 UTC (32 minutes ago):

LLBG 030920Z 08005KT 040V130 CAVOK 22/07 Q1019 NOSIG

Closest aviation forecast (TAF) to Tel Nof Air Base

Closest forecast is Ben Gurion International Airport, 10.8 nm (20.1 km) NNE. Retrieved 2021/12/03 06:09 UTC (4 hours ago):

TAF TAF LLBG 030505Z 0306/0406 VRB03KT CAVOK PROB40 TEMPO 0307/0309 12008KT BECMG 0309/0311 35008KT BECMG 0316/0318 VRB04KT PROB40 TEMPO 0322/0406 14006KT TX22/0311Z TN12/0404Z